createdAt,value
2022-08-29T00:00:18.767Z,58.19
2022-08-29T00:01:09.023Z,58.03
2022-08-29T00:01:42.536Z,58.20
2022-08-29T00:02:15.773Z,58.55
2022-08-29T00:02:53.321Z,58.98
2022-08-29T00:03:27.893Z,59.47
2022-08-29T00:04:03.818Z,59.97
2022-08-29T00:04:38.119Z,60.46
2022-08-29T00:05:12.614Z,60.90
2022-08-29T00:05:50.126Z,61.37
2022-08-29T00:06:26.194Z,61.70
2022-08-29T00:06:59.544Z,62.11
2022-08-29T00:07:32.909Z,62.47
2022-08-29T00:08:06.792Z,62.86
2022-08-29T00:08:40.012Z,63.16
2022-08-29T00:09:13.328Z,62.93
2022-08-29T00:09:46.688Z,62.36
2022-08-29T00:10:20.551Z,61.65
2022-08-29T00:10:54.167Z,60.95
2022-08-29T00:11:27.287Z,60.20
2022-08-29T00:12:00.538Z,59.49
2022-08-29T00:12:33.846Z,58.69
2022-08-29T00:13:09.229Z,58.07
2022-08-29T00:13:42.889Z,57.78
2022-08-29T00:14:21.089Z,57.90
2022-08-29T00:14:57.188Z,58.16
2022-08-29T00:15:30.823Z,58.68
2022-08-29T00:16:05.704Z,59.12
2022-08-29T00:16:38.839Z,59.61
2022-08-29T00:17:12.061Z,60.09
2022-08-29T00:17:45.254Z,60.54
2022-08-29T00:18:20.548Z,60.95
2022-08-29T00:18:53.690Z,61.32
2022-08-29T00:19:27.768Z,61.69
2022-08-29T00:20:01.354Z,62.06
2022-08-29T00:20:36.066Z,62.44
2022-08-29T00:21:09.279Z,62.74
2022-08-29T00:21:42.748Z,63.08
2022-08-29T00:22:16.477Z,62.90
2022-08-29T00:22:49.694Z,62.26
2022-08-29T00:23:22.974Z,61.51
2022-08-29T00:23:56.022Z,60.67
2022-08-29T00:24:29.354Z,59.88
2022-08-29T00:25:05.141Z,58.92
2022-08-29T00:25:38.630Z,58.13
2022-08-29T00:26:12.111Z,57.73
2022-08-29T00:26:45.460Z,57.76
2022-08-29T00:27:18.642Z,58.03
2022-08-29T00:27:52.066Z,58.37
2022-08-29T00:28:25.661Z,58.81
2022-08-29T00:28:58.793Z,59.36
2022-08-29T00:29:33.972Z,59.82
2022-08-29T00:30:09.081Z,60.30
2022-08-29T00:30:42.935Z,60.69
2022-08-29T00:31:16.245Z,61.14
2022-08-29T00:31:50.211Z,61.54
2022-08-29T00:32:23.440Z,61.90
2022-08-29T00:32:56.584Z,62.26
2022-08-29T00:33:30.191Z,62.60
2022-08-29T00:34:04.277Z,62.98
2022-08-29T00:34:37.371Z,62.94
2022-08-29T00:35:15.311Z,62.40
2022-08-29T00:35:48.466Z,62.00
2022-08-29T00:36:22.504Z,60.99
2022-08-29T00:36:56.250Z,60.20
2022-08-29T00:37:29.534Z,59.30
2022-08-29T00:38:09.811Z,58.39
2022-08-29T00:38:43.192Z,58.03
2022-08-29T00:39:16.849Z,57.94
2022-08-29T00:39:52.164Z,58.14
2022-08-29T00:40:30.332Z,58.52
2022-08-29T00:41:04.711Z,58.91
2022-08-29T00:41:38.147Z,59.46
2022-08-29T00:42:11.149Z,59.97
2022-08-29T00:42:44.738Z,60.41
2022-08-29T00:43:24.962Z,60.79
2022-08-29T00:43:57.995Z,61.05
2022-08-29T00:44:31.385Z,61.56
2022-08-29T00:45:08.043Z,61.90
2022-08-29T00:45:51.727Z,62.16
2022-08-29T00:46:47.046Z,62.54
2022-08-29T00:47:26.805Z,63.69
2022-08-29T00:48:08.276Z,62.83
2022-08-29T00:48:42.433Z,61.97
2022-08-29T00:49:41.926Z,60.30
2022-08-29T00:50:41.009Z,60.47
2022-08-29T00:51:18.041Z,58.87
2022-08-29T00:51:52.490Z,57.68
2022-08-29T00:52:31.172Z,57.62
2022-08-29T00:53:09.121Z,57.86
2022-08-29T00:53:46.203Z,58.25
2022-08-29T00:54:19.773Z,58.77
2022-08-29T00:54:56.768Z,59.31
2022-08-29T00:55:34.058Z,59.77
2022-08-29T00:56:09.848Z,60.27
2022-08-29T00:56:46.861Z,60.77
2022-08-29T00:57:22.451Z,61.19
2022-08-29T00:58:11.734Z,61.62
2022-08-29T00:58:59.379Z,61.75
2022-08-29T00:59:37.284Z,62.26
2022-08-29T01:00:13.652Z,62.93
2022-08-29T01:00:49.471Z,63.37
2022-08-29T01:01:23.521Z,63.09
2022-08-29T01:01:57.036Z,62.41
2022-08-29T01:02:30.363Z,61.52
2022-08-29T01:03:04.953Z,60.58
2022-08-29T01:03:42.805Z,59.76
2022-08-29T01:04:24.254Z,59.11
2022-08-29T01:04:58.137Z,58.41
2022-08-29T01:05:32.557Z,58.19
2022-08-29T01:06:06.912Z,58.36
2022-08-29T01:06:41.561Z,58.71
2022-08-29T01:07:15.131Z,59.18
2022-08-29T01:07:52.285Z,59.72
2022-08-29T01:08:26.297Z,60.22
2022-08-29T01:08:59.735Z,60.76
2022-08-29T01:09:35.788Z,61.25
2022-08-29T01:10:13.195Z,61.63
2022-08-29T01:11:05.878Z,62.02
2022-08-29T01:11:58.222Z,62.55
2022-08-29T01:12:31.802Z,63.34
2022-08-29T01:13:07.684Z,62.43
2022-08-29T01:13:45.332Z,61.83
2022-08-29T01:14:21.218Z,60.93
2022-08-29T01:15:06.765Z,60.04
2022-08-29T01:15:44.304Z,59.28
2022-08-29T01:16:19.734Z,58.20
2022-08-29T01:16:57.327Z,57.98
2022-08-29T01:17:44.890Z,58.11
2022-08-29T01:18:19.701Z,58.39
2022-08-29T01:18:57.368Z,59.06
2022-08-29T01:19:58.599Z,59.58
2022-08-29T01:20:51.642Z,59.76
2022-08-29T01:22:12.787Z,60.56
2022-08-29T01:23:04.956Z,60.90
2022-08-29T01:23:56.716Z,61.92
2022-08-29T01:24:40.546Z,62.95
2022-08-29T01:25:21.122Z,63.57
2022-08-29T01:25:55.578Z,63.05
2022-08-29T01:26:30.750Z,61.80
2022-08-29T01:27:04.187Z,60.83
2022-08-29T01:27:40.827Z,60.04
2022-08-29T01:28:22.218Z,59.41
2022-08-29T01:28:57.014Z,58.61
2022-08-29T01:29:30.202Z,58.27
2022-08-29T01:30:05.802Z,58.38
2022-08-29T01:31:06.315Z,58.68
2022-08-29T01:31:55.969Z,58.94
2022-08-29T01:32:31.594Z,59.82
2022-08-29T01:33:04.719Z,60.59
2022-08-29T01:33:42.987Z,61.07
2022-08-29T01:34:19.324Z,61.43
2022-08-29T01:34:53.225Z,61.93
2022-08-29T01:35:26.990Z,62.42
2022-08-29T01:36:00.182Z,62.94
2022-08-29T01:36:47.415Z,63.23
2022-08-29T01:37:21.104Z,63.44
2022-08-29T01:37:54.410Z,62.20
2022-08-29T01:38:27.956Z,61.34
2022-08-29T01:39:01.309Z,60.48
2022-08-29T01:39:39.076Z,59.68
2022-08-29T01:40:13.849Z,58.75
2022-08-29T01:40:47.102Z,58.10
2022-08-29T01:41:21.170Z,57.84
2022-08-29T01:41:57.271Z,57.93
2022-08-29T01:42:35.437Z,58.23
2022-08-29T01:43:10.767Z,58.62
2022-08-29T01:43:46.902Z,59.27
2022-08-29T01:44:25.682Z,59.75
2022-08-29T01:45:00.818Z,60.21
2022-08-29T01:45:36.005Z,60.82
2022-08-29T01:46:11.387Z,61.35
2022-08-29T01:46:44.459Z,61.73
2022-08-29T01:47:18.611Z,62.25
2022-08-29T01:47:51.903Z,62.62
2022-08-29T01:48:25.173Z,62.99
2022-08-29T01:49:01.592Z,62.98
2022-08-29T01:49:40.565Z,62.56
2022-08-29T01:50:16.057Z,61.89
2022-08-29T01:50:49.514Z,60.84
2022-08-29T01:51:25.914Z,60.04
2022-08-29T01:51:59.005Z,59.08
2022-08-29T01:52:32.705Z,58.37
2022-08-29T01:53:05.898Z,58.04
2022-08-29T01:53:39.547Z,58.10
2022-08-29T01:54:13.379Z,58.37
2022-08-29T01:54:47.104Z,58.78
2022-08-29T01:55:20.891Z,59.22
2022-08-29T01:55:53.980Z,59.71
2022-08-29T01:56:31.489Z,60.34
2022-08-29T01:57:04.710Z,60.73
2022-08-29T01:57:40.532Z,61.31
2022-08-29T01:58:14.222Z,61.74
2022-08-29T01:58:49.602Z,62.18
2022-08-29T01:59:27.459Z,62.58
2022-08-29T02:00:02.593Z,63.24
2022-08-29T02:00:36.524Z,63.18
2022-08-29T02:01:10.802Z,62.57
2022-08-29T02:01:52.781Z,61.84
2022-08-29T02:02:30.089Z,61.33
2022-08-29T02:03:04.127Z,60.21
2022-08-29T02:03:38.634Z,59.19
2022-08-29T02:04:12.105Z,58.38
2022-08-29T02:04:47.535Z,58.02
2022-08-29T02:05:23.289Z,58.09
2022-08-29T02:06:00.151Z,58.40
2022-08-29T02:06:34.508Z,58.80
2022-08-29T02:07:12.045Z,59.34
2022-08-29T02:07:45.914Z,59.85
2022-08-29T02:08:20.647Z,60.49
2022-08-29T02:08:54.977Z,60.95
2022-08-29T02:09:29.063Z,61.58
2022-08-29T02:10:02.452Z,62.02
2022-08-29T02:10:35.624Z,62.44
2022-08-29T02:11:10.597Z,62.92
2022-08-29T02:11:46.659Z,63.29
2022-08-29T02:12:20.946Z,63.20
2022-08-29T02:12:54.285Z,62.53
2022-08-29T02:13:27.646Z,61.79
2022-08-29T02:14:01.819Z,60.98
2022-08-29T02:14:36.255Z,60.21
2022-08-29T02:15:09.672Z,59.50
2022-08-29T02:15:42.837Z,58.60
2022-08-29T02:16:16.623Z,58.22
2022-08-29T02:16:50.143Z,58.20
2022-08-29T02:17:24.490Z,58.45
2022-08-29T02:17:57.579Z,58.90
2022-08-29T02:18:32.414Z,59.44
2022-08-29T02:19:05.634Z,60.05
2022-08-29T02:19:40.256Z,60.58
2022-08-29T02:20:13.424Z,61.10
2022-08-29T02:20:46.585Z,61.60
2022-08-29T02:21:22.469Z,62.10
2022-08-29T02:21:55.685Z,62.50
2022-08-29T02:22:28.908Z,63.03
2022-08-29T02:23:10.607Z,63.15
2022-08-29T02:23:52.320Z,62.95
2022-08-29T02:24:26.486Z,61.56
2022-08-29T02:24:59.758Z,60.78
2022-08-29T02:25:41.910Z,59.85
2022-08-29T02:26:14.951Z,59.22
2022-08-29T02:26:48.023Z,58.20
2022-08-29T02:27:21.162Z,58.02
2022-08-29T02:27:55.714Z,58.18
2022-08-29T02:28:28.978Z,58.51
2022-08-29T02:29:02.374Z,59.03
2022-08-29T02:29:38.008Z,59.60
2022-08-29T02:30:14.540Z,60.15
2022-08-29T02:30:52.176Z,60.71
2022-08-29T02:31:30.244Z,61.18
2022-08-29T02:32:04.625Z,61.90
2022-08-29T02:32:38.386Z,62.37
2022-08-29T02:33:13.874Z,62.91
2022-08-29T02:33:48.283Z,63.35
2022-08-29T02:34:22.525Z,63.22
2022-08-29T02:34:55.645Z,62.55
2022-08-29T02:35:34.474Z,61.91
2022-08-29T02:36:09.467Z,61.30
2022-08-29T02:36:44.639Z,60.38
2022-08-29T02:37:19.650Z,59.68
2022-08-29T02:37:53.202Z,58.65
2022-08-29T02:38:27.290Z,58.01
2022-08-29T02:39:00.362Z,57.81
2022-08-29T02:39:34.535Z,57.92
2022-08-29T02:40:09.345Z,58.31
2022-08-29T02:40:44.477Z,58.82
2022-08-29T02:41:18.074Z,59.37
2022-08-29T02:41:51.391Z,59.91
2022-08-29T02:42:24.518Z,60.49
2022-08-29T02:42:57.849Z,61.05
2022-08-29T02:43:31.363Z,61.56
2022-08-29T02:44:05.293Z,62.11
2022-08-29T02:44:38.519Z,62.56
2022-08-29T02:45:12.330Z,63.14
2022-08-29T02:45:47.986Z,63.16
2022-08-29T02:46:21.470Z,62.71
2022-08-29T02:46:54.799Z,61.80
2022-08-29T02:47:28.144Z,61.16
2022-08-29T02:48:01.317Z,60.37
2022-08-29T02:48:34.441Z,59.59
2022-08-29T02:49:07.902Z,58.78
2022-08-29T02:49:40.931Z,58.23
2022-08-29T02:50:15.034Z,58.00
2022-08-29T02:50:51.552Z,58.11
2022-08-29T02:51:28.465Z,58.49
2022-08-29T02:52:02.725Z,58.94
2022-08-29T02:52:37.396Z,59.61
2022-08-29T02:53:11.793Z,60.18
2022-08-29T02:53:45.065Z,60.72
2022-08-29T02:54:19.060Z,61.28
2022-08-29T02:54:52.302Z,61.86
2022-08-29T02:55:26.655Z,62.34
2022-08-29T02:55:59.868Z,62.85
2022-08-29T02:56:33.032Z,63.27
2022-08-29T02:57:06.618Z,63.05
2022-08-29T02:57:39.749Z,62.81
2022-08-29T02:58:14.363Z,62.02
2022-08-29T02:58:50.185Z,61.45
2022-08-29T02:59:23.254Z,60.61
2022-08-29T02:59:56.391Z,59.68
2022-08-29T03:00:29.719Z,58.89
2022-08-29T03:01:02.858Z,58.37
2022-08-29T03:01:38.904Z,58.18
2022-08-29T03:02:12.269Z,58.30
2022-08-29T03:02:47.674Z,58.71
2022-08-29T03:03:21.593Z,59.21
2022-08-29T03:03:54.997Z,59.74
2022-08-29T03:04:28.306Z,60.30
2022-08-29T03:05:01.538Z,60.88
2022-08-29T03:05:35.456Z,61.47
2022-08-29T03:06:09.192Z,62.01
2022-08-29T03:06:42.316Z,62.54
2022-08-29T03:07:15.511Z,63.25
2022-08-29T03:07:51.012Z,63.58
2022-08-29T03:08:24.557Z,63.53
2022-08-29T03:08:57.708Z,62.88
2022-08-29T03:09:31.247Z,62.09
2022-08-29T03:10:05.912Z,61.32
2022-08-29T03:10:39.047Z,60.62
2022-08-29T03:11:12.229Z,59.85
2022-08-29T03:11:45.335Z,59.21
2022-08-29T03:12:19.162Z,58.68
2022-08-29T03:12:52.238Z,58.51
2022-08-29T03:13:25.416Z,58.75
2022-08-29T03:13:58.629Z,59.17
2022-08-29T03:14:31.887Z,59.86
2022-08-29T03:15:06.105Z,60.59
2022-08-29T03:15:39.694Z,61.23
2022-08-29T03:16:13.546Z,61.87
2022-08-29T03:16:46.749Z,62.53
2022-08-29T03:17:19.866Z,63.28
2022-08-29T03:17:53.153Z,63.50
2022-08-29T03:18:26.538Z,63.30
2022-08-29T03:18:59.823Z,62.57
2022-08-29T03:19:37.276Z,61.95
2022-08-29T03:20:13.699Z,61.28
2022-08-29T03:20:47.177Z,60.42
2022-08-29T03:21:25.162Z,60.01
2022-08-29T03:21:58.428Z,59.42
2022-08-29T03:22:31.546Z,58.76
2022-08-29T03:23:06.097Z,58.63
2022-08-29T03:23:41.143Z,58.88
2022-08-29T03:24:14.444Z,59.51
2022-08-29T03:24:47.694Z,60.14
2022-08-29T03:25:22.675Z,60.86
2022-08-29T03:25:56.146Z,61.49
2022-08-29T03:26:29.612Z,62.17
2022-08-29T03:27:03.870Z,62.87
2022-08-29T03:27:36.986Z,63.41
2022-08-29T03:28:10.063Z,63.55
2022-08-29T03:28:43.115Z,63.26
2022-08-29T03:29:16.256Z,62.64
2022-08-29T03:29:49.587Z,61.95
2022-08-29T03:30:24.014Z,61.22
2022-08-29T03:30:57.399Z,60.76
2022-08-29T03:31:30.662Z,60.13
2022-08-29T03:32:05.154Z,59.62
2022-08-29T03:32:39.403Z,59.05
2022-08-29T03:33:12.584Z,58.66
2022-08-29T03:33:45.622Z,58.69
2022-08-29T03:34:18.959Z,58.96
2022-08-29T03:34:53.827Z,59.48
2022-08-29T03:35:26.972Z,60.05
2022-08-29T03:36:00.214Z,60.76
2022-08-29T03:36:33.394Z,61.38
2022-08-29T03:37:06.381Z,62.00
2022-08-29T03:37:40.829Z,62.65
2022-08-29T03:38:14.029Z,63.32
2022-08-29T03:38:47.545Z,63.45
2022-08-29T03:39:21.114Z,63.11
2022-08-29T03:39:55.412Z,62.43
2022-08-29T03:40:28.815Z,61.80
2022-08-29T03:41:02.158Z,61.10
2022-08-29T03:41:35.750Z,60.46
2022-08-29T03:42:09.598Z,59.88
2022-08-29T03:42:43.237Z,59.22
2022-08-29T03:43:16.666Z,58.68
2022-08-29T03:43:52.171Z,58.57
2022-08-29T03:44:25.676Z,58.82
2022-08-29T03:44:58.847Z,59.34
2022-08-29T03:45:32.456Z,59.95
2022-08-29T03:46:05.805Z,60.56
2022-08-29T03:46:39.750Z,61.20
2022-08-29T03:47:13.594Z,61.76
2022-08-29T03:47:47.063Z,62.37
2022-08-29T03:48:20.580Z,63.09
2022-08-29T03:48:54.214Z,63.53
2022-08-29T03:49:27.848Z,63.44
2022-08-29T03:50:01.150Z,62.93
2022-08-29T03:50:34.339Z,62.18
2022-08-29T03:51:08.985Z,61.46
2022-08-29T03:51:42.617Z,60.80
2022-08-29T03:52:16.419Z,60.09
2022-08-29T03:52:49.572Z,59.49
2022-08-29T03:53:22.816Z,58.71
2022-08-29T03:53:55.954Z,58.41
2022-08-29T03:54:29.415Z,58.40
2022-08-29T03:55:04.254Z,58.66
2022-08-29T03:55:38.345Z,59.10
2022-08-29T03:56:18.384Z,59.62
2022-08-29T03:56:52.391Z,60.18
2022-08-29T03:57:25.522Z,61.02
2022-08-29T03:57:58.621Z,61.57
2022-08-29T03:58:31.697Z,62.15
2022-08-29T03:59:05.079Z,62.71
2022-08-29T03:59:38.223Z,63.34
2022-08-29T04:00:16.317Z,63.32
2022-08-29T04:00:49.785Z,63.02
2022-08-29T04:01:27.066Z,62.16
2022-08-29T04:02:00.706Z,61.46
2022-08-29T04:02:33.961Z,60.68
2022-08-29T04:03:07.162Z,59.94
2022-08-29T04:03:40.511Z,59.37
2022-08-29T04:04:34.068Z,58.74
2022-08-29T04:05:08.431Z,58.45
2022-08-29T04:05:43.338Z,58.88
2022-08-29T04:06:16.776Z,59.41
2022-08-29T04:06:49.925Z,59.95
2022-08-29T04:07:23.888Z,60.55
2022-08-29T04:07:59.748Z,61.18
2022-08-29T04:08:32.860Z,61.74
2022-08-29T04:09:06.031Z,62.46
2022-08-29T04:09:43.227Z,63.04
2022-08-29T04:10:23.871Z,63.49
2022-08-29T04:10:56.995Z,64.36
2022-08-29T04:11:30.210Z,64.07
2022-08-29T04:12:03.628Z,62.28
2022-08-29T04:12:36.961Z,61.48
2022-08-29T04:13:10.125Z,60.86
2022-08-29T04:13:43.458Z,60.25
2022-08-29T04:14:16.615Z,59.76
2022-08-29T04:14:50.015Z,59.27
2022-08-29T04:15:28.341Z,58.74
2022-08-29T04:16:01.508Z,58.72
2022-08-29T04:16:34.985Z,59.11
2022-08-29T04:17:10.478Z,59.58
2022-08-29T04:17:52.910Z,60.12
2022-08-29T04:18:26.738Z,60.61
2022-08-29T04:19:00.223Z,61.52
2022-08-29T04:19:35.456Z,62.20
2022-08-29T04:20:09.756Z,62.87
2022-08-29T04:20:45.161Z,63.48
2022-08-29T04:21:19.331Z,63.63
2022-08-29T04:21:52.527Z,63.23
2022-08-29T04:22:25.668Z,62.65
2022-08-29T04:22:59.721Z,62.02
2022-08-29T04:23:34.687Z,61.52
2022-08-29T04:24:07.938Z,60.94
2022-08-29T04:24:41.164Z,60.36
2022-08-29T04:25:15.588Z,59.88
2022-08-29T04:25:48.607Z,59.54
2022-08-29T04:26:37.854Z,59.07
2022-08-29T04:27:11.689Z,58.75
2022-08-29T04:27:45.351Z,58.96
2022-08-29T04:28:18.537Z,59.37
2022-08-29T04:28:53.294Z,59.89
2022-08-29T04:29:26.485Z,60.50
2022-08-29T04:30:00.487Z,61.17
2022-08-29T04:30:34.789Z,61.88
2022-08-29T04:31:20.490Z,62.39
2022-08-29T04:31:53.740Z,63.15
2022-08-29T04:32:27.331Z,63.60
2022-08-29T04:33:01.141Z,63.43
2022-08-29T04:33:34.268Z,62.98
2022-08-29T04:34:09.558Z,62.07
2022-08-29T04:34:42.840Z,61.71
2022-08-29T04:35:16.927Z,60.91
2022-08-29T04:35:51.084Z,60.51
2022-08-29T04:36:24.353Z,59.91
2022-08-29T04:36:58.088Z,59.49
2022-08-29T04:37:31.507Z,58.96
2022-08-29T04:38:05.113Z,58.63
2022-08-29T04:38:38.178Z,58.65
2022-08-29T04:39:12.665Z,58.95
2022-08-29T04:39:46.688Z,59.35
2022-08-29T04:40:22.101Z,60.03
2022-08-29T04:40:55.286Z,60.66
2022-08-29T04:41:28.383Z,61.36
2022-08-29T04:42:01.854Z,61.90
2022-08-29T04:42:39.066Z,62.46
2022-08-29T04:43:12.817Z,63.08
2022-08-29T04:43:46.359Z,63.57
2022-08-29T04:44:19.478Z,63.37
2022-08-29T04:44:52.715Z,62.85
2022-08-29T04:45:26.843Z,62.15
2022-08-29T04:46:00.963Z,61.38
2022-08-29T04:46:34.857Z,60.78
2022-08-29T04:47:08.045Z,60.11
2022-08-29T04:47:42.706Z,59.52
2022-08-29T04:48:17.999Z,59.05
2022-08-29T04:48:51.810Z,58.66
2022-08-29T04:49:25.109Z,58.66
2022-08-29T04:49:58.541Z,58.99
2022-08-29T04:50:31.837Z,59.53
2022-08-29T04:51:05.069Z,60.12
2022-08-29T04:51:38.258Z,60.73
2022-08-29T04:52:12.646Z,61.30
2022-08-29T04:52:47.498Z,61.91
2022-08-29T04:53:20.784Z,62.55
2022-08-29T04:53:54.239Z,63.21
2022-08-29T04:54:27.659Z,63.39
2022-08-29T04:55:00.858Z,63.01
2022-08-29T04:55:34.004Z,62.41
2022-08-29T04:56:09.774Z,61.68
2022-08-29T04:56:47.134Z,61.09
2022-08-29T04:57:21.383Z,60.38
2022-08-29T04:57:57.016Z,59.54
2022-08-29T04:58:31.266Z,58.96
2022-08-29T04:59:05.229Z,58.44
2022-08-29T04:59:38.462Z,58.49
2022-08-29T05:00:15.232Z,58.74
2022-08-29T05:00:48.493Z,59.16
2022-08-29T05:01:24.853Z,59.75
2022-08-29T05:01:58.922Z,60.37
2022-08-29T05:02:32.205Z,61.06
2022-08-29T05:03:05.629Z,61.70
2022-08-29T05:03:39.194Z,62.25
2022-08-29T05:04:14.620Z,62.91
2022-08-29T05:04:52.746Z,63.47
2022-08-29T05:05:26.350Z,63.43
2022-08-29T05:06:02.533Z,62.95
2022-08-29T05:06:35.794Z,62.25
2022-08-29T05:07:09.689Z,61.53
2022-08-29T05:07:44.076Z,60.84
2022-08-29T05:08:17.140Z,60.09
2022-08-29T05:08:58.787Z,59.42
2022-08-29T05:09:33.438Z,58.83
2022-08-29T05:10:11.184Z,58.42
2022-08-29T05:10:47.936Z,58.41
2022-08-29T05:11:22.059Z,58.77
2022-08-29T05:11:56.071Z,59.35
2022-08-29T05:12:30.998Z,59.97
2022-08-29T05:13:04.584Z,60.50
2022-08-29T05:13:38.251Z,61.21
2022-08-29T05:14:11.876Z,61.81
2022-08-29T05:14:44.897Z,62.34
2022-08-29T05:15:18.971Z,62.99
2022-08-29T05:15:52.567Z,63.43
2022-08-29T05:16:26.098Z,63.35
2022-08-29T05:16:59.414Z,62.86
2022-08-29T05:17:32.755Z,62.13
2022-08-29T05:18:06.055Z,61.38
2022-08-29T05:18:39.859Z,60.62
2022-08-29T05:19:15.918Z,60.02
2022-08-29T05:19:50.062Z,59.48
2022-08-29T05:20:23.335Z,58.81
2022-08-29T05:20:56.521Z,58.65
2022-08-29T05:21:35.892Z,58.80
2022-08-29T05:22:09.639Z,59.13
2022-08-29T05:22:43.267Z,59.86
2022-08-29T05:23:18.430Z,60.55
2022-08-29T05:23:52.169Z,61.13
2022-08-29T05:24:25.777Z,61.75
2022-08-29T05:25:00.443Z,62.28
2022-08-29T05:25:33.675Z,62.97
2022-08-29T05:26:06.860Z,63.51
2022-08-29T05:26:45.661Z,63.45
2022-08-29T05:27:21.696Z,63.16
2022-08-29T05:27:54.798Z,62.37
2022-08-29T05:28:29.827Z,61.53
2022-08-29T05:29:08.742Z,60.94
2022-08-29T05:29:44.925Z,60.26
2022-08-29T05:30:31.949Z,59.52
2022-08-29T05:31:13.770Z,59.00
2022-08-29T05:31:48.398Z,58.38
2022-08-29T05:32:21.735Z,58.52
2022-08-29T05:32:55.456Z,58.92
2022-08-29T05:33:28.925Z,59.43
2022-08-29T05:34:32.103Z,59.99
2022-08-29T05:34:56.970Z,60.46
2022-08-29T05:35:30.036Z,61.42
2022-08-29T05:36:03.595Z,62.06
2022-08-29T05:36:36.986Z,62.65
2022-08-29T05:37:15.256Z,63.22
2022-08-29T05:37:48.587Z,63.37
2022-08-29T05:38:21.922Z,62.77
2022-08-29T05:38:55.908Z,62.06
2022-08-29T05:39:29.265Z,61.37
2022-08-29T05:40:03.446Z,60.72
2022-08-29T05:40:36.839Z,60.01
2022-08-29T05:41:10.079Z,59.32
2022-08-29T05:41:43.496Z,58.83
2022-08-29T05:42:19.982Z,58.73
2022-08-29T05:42:53.327Z,58.87
2022-08-29T05:43:26.512Z,59.20
2022-08-29T05:43:59.646Z,59.66
2022-08-29T05:44:35.382Z,60.23
2022-08-29T05:45:09.668Z,60.80
2022-08-29T05:45:43.165Z,61.41
2022-08-29T05:46:20.256Z,62.06
2022-08-29T05:46:54.546Z,62.60
2022-08-29T05:47:27.966Z,63.28
2022-08-29T05:48:04.950Z,63.23
2022-08-29T05:48:41.697Z,62.91
2022-08-29T05:49:15.456Z,61.92
2022-08-29T05:49:49.610Z,61.11
2022-08-29T05:50:23.838Z,60.34
2022-08-29T05:50:58.607Z,59.76
2022-08-29T05:51:38.831Z,58.97
2022-08-29T05:52:16.190Z,58.29
2022-08-29T05:52:49.753Z,58.17
2022-08-29T05:53:22.995Z,58.43
2022-08-29T05:53:56.317Z,58.92
2022-08-29T05:54:30.319Z,59.37
2022-08-29T05:55:04.387Z,60.07
2022-08-29T05:55:44.855Z,60.68
2022-08-29T05:56:25.941Z,60.43
2022-08-29T05:56:59.091Z,60.55
2022-08-29T05:57:32.471Z,62.23
2022-08-29T05:58:05.733Z,62.87
2022-08-29T05:58:39.658Z,63.39
2022-08-29T05:59:14.032Z,63.21
2022-08-29T05:59:50.051Z,62.65
2022-08-29T06:00:23.315Z,61.97
2022-08-29T06:00:56.867Z,61.10
2022-08-29T06:01:34.360Z,60.38
2022-08-29T06:02:09.663Z,59.61
2022-08-29T06:02:43.086Z,58.98
2022-08-29T06:03:17.118Z,58.18
2022-08-29T06:03:50.659Z,58.06
2022-08-29T06:04:24.309Z,58.26
2022-08-29T06:04:57.751Z,58.53
2022-08-29T06:05:31.022Z,59.09
2022-08-29T06:06:04.377Z,59.65
2022-08-29T06:06:39.558Z,60.19
2022-08-29T06:07:13.337Z,60.68
2022-08-29T06:07:46.588Z,61.38
2022-08-29T06:08:21.180Z,61.71
2022-08-29T06:08:55.822Z,61.91
2022-08-29T06:09:29.220Z,62.36
2022-08-29T06:10:07.096Z,62.83
2022-08-29T06:10:44.040Z,63.10
2022-08-29T06:11:25.438Z,62.93
2022-08-29T06:11:59.849Z,62.36
2022-08-29T06:12:34.553Z,61.22
2022-08-29T06:13:07.898Z,60.48
2022-08-29T06:13:41.114Z,59.69
2022-08-29T06:14:15.268Z,58.91
2022-08-29T06:14:50.406Z,58.31
2022-08-29T06:15:28.761Z,58.20
2022-08-29T06:16:02.093Z,58.48
2022-08-29T06:16:35.336Z,59.01
2022-08-29T06:17:09.490Z,59.58
2022-08-29T06:17:42.640Z,59.98
2022-08-29T06:18:16.034Z,60.27
2022-08-29T06:18:49.633Z,60.62
2022-08-29T06:19:23.508Z,61.09
2022-08-29T06:19:56.603Z,61.78
2022-08-29T06:20:29.785Z,62.14
2022-08-29T06:21:06.333Z,62.47
2022-08-29T06:21:39.585Z,63.05
2022-08-29T06:22:12.687Z,63.24
2022-08-29T06:22:45.896Z,63.01
2022-08-29T06:23:18.977Z,62.27
2022-08-29T06:23:56.964Z,61.29
2022-08-29T06:24:32.167Z,60.45
2022-08-29T06:25:35.204Z,59.65
2022-08-29T06:26:00.299Z,58.72
2022-08-29T06:26:34.665Z,57.96
2022-08-29T06:27:08.066Z,57.72
2022-08-29T06:27:41.250Z,57.89
2022-08-29T06:28:20.508Z,58.11
2022-08-29T06:28:57.606Z,58.34
2022-08-29T06:29:30.964Z,59.07
2022-08-29T06:30:04.923Z,59.64
2022-08-29T06:30:38.206Z,60.14
2022-08-29T06:31:23.107Z,60.72
2022-08-29T06:31:57.056Z,61.14
2022-08-29T06:32:30.286Z,61.36
2022-08-29T06:33:04.573Z,61.82
2022-08-29T06:33:38.224Z,62.08
2022-08-29T06:34:11.433Z,62.40
2022-08-29T06:34:44.650Z,62.56
2022-08-29T06:35:17.937Z,62.86
2022-08-29T06:35:53.108Z,62.58
2022-08-29T06:36:28.224Z,61.90
2022-08-29T06:37:01.565Z,61.09
2022-08-29T06:37:34.638Z,59.97
2022-08-29T06:38:12.004Z,58.88
2022-08-29T06:38:47.681Z,58.12
2022-08-29T06:39:21.067Z,57.84
2022-08-29T06:39:54.381Z,57.86
2022-08-29T06:40:27.766Z,58.06
2022-08-29T06:41:09.449Z,58.49
2022-08-29T06:41:42.584Z,58.74
2022-08-29T06:42:19.226Z,59.24
2022-08-29T06:42:52.351Z,59.62
2022-08-29T06:43:25.793Z,60.21
2022-08-29T06:44:00.141Z,60.65
2022-08-29T06:44:33.760Z,60.82
2022-08-29T06:45:07.648Z,61.19
2022-08-29T06:45:42.860Z,61.67
2022-08-29T06:46:23.105Z,61.83
2022-08-29T06:46:56.607Z,61.86
2022-08-29T06:47:29.825Z,62.07
2022-08-29T06:48:03.127Z,62.21
2022-08-29T06:48:36.360Z,62.36
2022-08-29T06:49:12.931Z,62.71
2022-08-29T06:49:46.146Z,62.77
2022-08-29T06:50:19.297Z,62.55
2022-08-29T06:50:55.629Z,61.91
2022-08-29T06:51:33.196Z,61.09
2022-08-29T06:52:06.892Z,60.16
2022-08-29T06:52:40.392Z,59.20
2022-08-29T06:53:26.943Z,58.31
2022-08-29T06:54:03.269Z,57.80
2022-08-29T06:54:40.551Z,57.89
2022-08-29T06:55:13.858Z,58.10
2022-08-29T06:55:48.490Z,58.29
2022-08-29T06:56:21.746Z,58.79
2022-08-29T06:56:55.085Z,59.16
2022-08-29T06:57:28.263Z,59.58
2022-08-29T06:58:01.856Z,59.94
2022-08-29T06:58:35.902Z,60.45
2022-08-29T06:59:09.801Z,60.88
2022-08-29T06:59:43.053Z,61.18
2022-08-29T07:00:22.408Z,61.36
2022-08-29T07:00:56.279Z,61.52
2022-08-29T07:01:29.537Z,61.90
2022-08-29T07:02:02.835Z,62.16
2022-08-29T07:02:36.199Z,62.48
2022-08-29T07:03:09.950Z,62.50
2022-08-29T07:03:43.807Z,62.56
2022-08-29T07:04:20.646Z,62.21
2022-08-29T07:04:54.386Z,61.66
2022-08-29T07:05:27.652Z,61.00
2022-08-29T07:06:00.869Z,60.10
2022-08-29T07:06:34.881Z,59.23
2022-08-29T07:07:08.090Z,58.56
2022-08-29T07:07:42.660Z,58.00
2022-08-29T07:08:15.858Z,57.89
2022-08-29T07:08:55.366Z,58.03
2022-08-29T07:09:31.356Z,58.35
2022-08-29T07:10:04.891Z,58.83
2022-08-29T07:10:38.774Z,59.15
2022-08-29T07:11:12.397Z,59.38
2022-08-29T07:11:45.561Z,59.85
2022-08-29T07:12:18.721Z,60.17
2022-08-29T07:12:53.161Z,60.21
2022-08-29T07:13:26.789Z,60.35
2022-08-29T07:14:04.182Z,60.65
2022-08-29T07:14:37.522Z,60.91
2022-08-29T07:15:11.481Z,61.16
2022-08-29T07:15:44.702Z,61.38
2022-08-29T07:16:19.291Z,61.54
2022-08-29T07:16:52.838Z,61.84
2022-08-29T07:17:26.254Z,61.73
2022-08-29T07:18:00.140Z,61.84
2022-08-29T07:18:33.657Z,61.53
2022-08-29T07:19:09.043Z,61.65
2022-08-29T07:19:42.172Z,62.12
2022-08-29T07:20:16.008Z,62.47
2022-08-29T07:20:49.514Z,62.62
2022-08-29T07:21:25.454Z,62.57
2022-08-29T07:21:59.830Z,62.06
2022-08-29T07:22:35.103Z,61.08
2022-08-29T07:23:08.944Z,60.26
2022-08-29T07:23:44.214Z,58.97
2022-08-29T07:24:18.578Z,58.27
2022-08-29T07:24:56.230Z,57.74
2022-08-29T07:25:29.387Z,57.63
2022-08-29T07:26:13.754Z,57.62
2022-08-29T07:26:46.852Z,57.75
2022-08-29T07:27:20.043Z,58.23
2022-08-29T07:27:53.476Z,58.81
2022-08-29T07:28:26.983Z,59.31
2022-08-29T07:29:05.241Z,59.68
2022-08-29T07:29:39.533Z,59.84
2022-08-29T07:30:16.706Z,60.24
2022-08-29T07:30:50.045Z,60.62
2022-08-29T07:31:23.596Z,60.66
2022-08-29T07:31:57.016Z,60.84
2022-08-29T07:32:30.375Z,61.13